sensor_id;sensor_type;location;lat;lon;timestamp;temperature;humidity
39347;DHT22;26262;49.836;6.632;2023-11-22T00:00:17;7.60;99.90
39347;DHT22;26262;49.836;6.632;2023-11-22T00:02:44;7.70;99.90
39347;DHT22;26262;49.836;6.632;2023-11-22T00:05:10;7.70;99.90
39347;DHT22;26262;49.836;6.632;2023-11-22T00:07:36;7.70;99.90
39347;DHT22;26262;49.836;6.632;2023-11-22T00:10:02;7.70;99.90
39347;DHT22;26262;49.836;6.632;2023-11-22T00:12:29;7.40;99.90
39347;DHT22;26262;49.836;6.632;2023-11-22T00:15:02;7.50;99.90
39347;DHT22;26262;49.836;6.632;2023-11-22T00:17:28;7.50;99.90
39347;DHT22;26262;49.836;6.632;2023-11-22T00:19:54;7.60;99.90
39347;DHT22;26262;49.836;6.632;2023-11-22T00:22:19;7.40;99.90
39347;DHT22;26262;49.836;6.632;2023-11-22T00:24:44;7.30;99.90
39347;DHT22;26262;49.836;6.632;2023-11-22T00:27:15;7.20;99.90
39347;DHT22;26262;49.836;6.632;2023-11-22T00:29:41;7.10;99.90
39347;DHT22;26262;49.836;6.632;2023-11-22T00:32:06;6.90;99.90
39347;DHT22;26262;49.836;6.632;2023-11-22T00:34:32;7.00;99.90
39347;DHT22;26262;49.836;6.632;2023-11-22T00:36:58;7.10;99.90
39347;DHT22;26262;49.836;6.632;2023-11-22T00:39:23;7.20;99.90
39347;DHT22;26262;49.836;6.632;2023-11-22T00:41:49;7.20;99.90
39347;DHT22;26262;49.836;6.632;2023-11-22T00:44:14;7.20;99.90
39347;DHT22;26262;49.836;6.632;2023-11-22T00:46:39;7.30;99.90
39347;DHT22;26262;49.836;6.632;2023-11-22T00:49:05;7.30;99.90
39347;DHT22;26262;49.836;6.632;2023-11-22T00:51:31;7.40;99.90
39347;DHT22;26262;49.836;6.632;2023-11-22T00:53:57;7.40;99.90
39347;DHT22;26262;49.836;6.632;2023-11-22T00:56:22;6.80;99.90
39347;DHT22;26262;49.836;6.632;2023-11-22T00:58:48;6.90;99.90
39347;DHT22;26262;49.836;6.632;2023-11-22T01:01:15;7.00;99.90
39347;DHT22;26262;49.836;6.632;2023-11-22T01:03:41;7.00;99.90
39347;DHT22;26262;49.836;6.632;2023-11-22T01:06:06;7.00;99.90
39347;DHT22;26262;49.836;6.632;2023-11-22T01:08:32;7.00;99.90
39347;DHT22;26262;49.836;6.632;2023-11-22T01:10:57;7.10;99.90
39347;DHT22;26262;49.836;6.632;2023-11-22T01:13:23;6.90;99.90
39347;DHT22;26262;49.836;6.632;2023-11-22T01:15:48;6.90;99.90
39347;DHT22;26262;49.836;6.632;2023-11-22T01:18:13;7.00;99.90
39347;DHT22;26262;49.836;6.632;2023-11-22T01:20:39;7.10;99.90
39347;DHT22;26262;49.836;6.632;2023-11-22T01:23:04;7.10;99.90
39347;DHT22;26262;49.836;6.632;2023-11-22T01:25:30;7.20;99.90
39347;DHT22;26262;49.836;6.632;2023-11-22T01:27:56;7.20;99.90
39347;DHT22;26262;49.836;6.632;2023-11-22T01:30:21;7.20;99.90
39347;DHT22;26262;49.836;6.632;2023-11-22T01:32:47;7.20;99.90
39347;DHT22;26262;49.836;6.632;2023-11-22T01:35:14;7.30;99.90
39347;DHT22;26262;49.836;6.632;2023-11-22T01:37:40;7.30;99.90
39347;DHT22;26262;49.836;6.632;2023-11-22T01:40:06;7.10;99.90
39347;DHT22;26262;49.836;6.632;2023-11-22T01:42:33;7.20;99.90
39347;DHT22;26262;49.836;6.632;2023-11-22T01:44:59;7.10;99.90
39347;DHT22;26262;49.836;6.632;2023-11-22T01:47:25;6.80;99.90
39347;DHT22;26262;49.836;6.632;2023-11-22T01:49:52;6.80;99.90
39347;DHT22;26262;49.836;6.632;2023-11-22T01:52:17;6.90;99.90
39347;DHT22;26262;49.836;6.632;2023-11-22T01:54:43;6.80;99.90
39347;DHT22;26262;49.836;6.632;2023-11-22T01:57:09;6.80;99.90
39347;DHT22;26262;49.836;6.632;2023-11-22T01:59:35;6.80;99.90
39347;DHT22;26262;49.836;6.632;2023-11-22T02:02:00;6.80;99.90
39347;DHT22;26262;49.836;6.632;2023-11-22T02:04:27;6.90;99.90
39347;DHT22;26262;49.836;6.632;2023-11-22T02:06:53;6.70;99.90
39347;DHT22;26262;49.836;6.632;2023-11-22T02:09:18;6.80;99.90
39347;DHT22;26262;49.836;6.632;2023-11-22T02:11:44;6.70;99.90
39347;DHT22;26262;49.836;6.632;2023-11-22T02:14:14;6.40;99.90
39347;DHT22;26262;49.836;6.632;2023-11-22T02:16:39;6.20;99.90
39347;DHT22;26262;49.836;6.632;2023-11-22T02:19:06;6.10;99.90
39347;DHT22;26262;49.836;6.632;2023-11-22T02:21:35;5.80;99.90
39347;DHT22;26262;49.836;6.632;2023-11-22T02:24:00;6.00;99.90
39347;DHT22;26262;49.836;6.632;2023-11-22T02:26:26;5.50;99.90
39347;DHT22;26262;49.836;6.632;2023-11-22T02:28:52;5.40;99.90
39347;DHT22;26262;49.836;6.632;2023-11-22T02:31:18;5.30;99.90
39347;DHT22;26262;49.836;6.632;2023-11-22T02:33:43;5.40;99.90
39347;DHT22;26262;49.836;6.632;2023-11-22T02:36:09;5.00;99.90
39347;DHT22;26262;49.836;6.632;2023-11-22T02:38:37;5.10;99.90
39347;DHT22;26262;49.836;6.632;2023-11-22T02:41:03;4.60;99.90
39347;DHT22;26262;49.836;6.632;2023-11-22T02:43:29;4.80;99.90
39347;DHT22;26262;49.836;6.632;2023-11-22T02:45:55;4.70;99.90
39347;DHT22;26262;49.836;6.632;2023-11-22T02:48:20;4.50;99.90
39347;DHT22;26262;49.836;6.632;2023-11-22T02:50:46;4.30;99.90
39347;DHT22;26262;49.836;6.632;2023-11-22T02:53:11;4.40;99.90
39347;DHT22;26262;49.836;6.632;2023-11-22T02:55:37;4.60;99.90
39347;DHT22;26262;49.836;6.632;2023-11-22T02:58:03;4.60;99.90
39347;DHT22;26262;49.836;6.632;2023-11-22T03:00:29;4.70;99.90
39347;DHT22;26262;49.836;6.632;2023-11-22T03:02:54;4.80;99.90
39347;DHT22;26262;49.836;6.632;2023-11-22T03:05:21;4.80;99.90
39347;DHT22;26262;49.836;6.632;2023-11-22T03:07:47;4.80;99.90
39347;DHT22;26262;49.836;6.632;2023-11-22T03:10:13;5.00;99.90
39347;DHT22;26262;49.836;6.632;2023-11-22T03:12:39;5.00;99.90
39347;DHT22;26262;49.836;6.632;2023-11-22T03:15:04;5.10;99.90
39347;DHT22;26262;49.836;6.632;2023-11-22T03:17:30;5.10;99.90
39347;DHT22;26262;49.836;6.632;2023-11-22T03:19:56;5.10;99.90
39347;DHT22;26262;49.836;6.632;2023-11-22T03:22:25;5.20;99.90
39347;DHT22;26262;49.836;6.632;2023-11-22T03:24:51;4.80;99.90
39347;DHT22;26262;49.836;6.632;2023-11-22T03:27:18;4.30;99.90
39347;DHT22;26262;49.836;6.632;2023-11-22T03:29:43;4.30;99.90
39347;DHT22;26262;49.836;6.632;2023-11-22T03:32:09;4.40;99.90
39347;DHT22;26262;49.836;6.632;2023-11-22T03:34:36;4.60;99.90
39347;DHT22;26262;49.836;6.632;2023-11-22T03:37:02;4.70;99.90
39347;DHT22;26262;49.836;6.632;2023-11-22T03:39:27;4.60;99.90
39347;DHT22;26262;49.836;6.632;2023-11-22T03:41:52;4.30;99.90
39347;DHT22;26262;49.836;6.632;2023-11-22T03:44:18;4.60;99.90
39347;DHT22;26262;49.836;6.632;2023-11-22T03:46:43;4.70;99.90
39347;DHT22;26262;49.836;6.632;2023-11-22T03:49:09;4.80;99.90
39347;DHT22;26262;49.836;6.632;2023-11-22T03:51:35;4.30;99.90
39347;DHT22;26262;49.836;6.632;2023-11-22T03:54:01;4.50;99.90
39347;DHT22;26262;49.836;6.632;2023-11-22T03:56:26;4.40;99.90
39347;DHT22;26262;49.836;6.632;2023-11-22T03:58:51;4.50;99.90
39347;DHT22;26262;49.836;6.632;2023-11-22T04:01:17;4.60;99.90
39347;DHT22;26262;49.836;6.632;2023-11-22T04:03:44;4.60;99.90
39347;DHT22;26262;49.836;6.632;2023-11-22T04:06:10;4.50;99.90
39347;DHT22;26262;49.836;6.632;2023-11-22T04:08:35;4.50;99.90
39347;DHT22;26262;49.836;6.632;2023-11-22T04:11:01;4.40;99.90
39347;DHT22;26262;49.836;6.632;2023-11-22T04:13:27;4.50;99.90
39347;DHT22;26262;49.836;6.632;2023-11-22T04:15:52;4.40;99.90
39347;DHT22;26262;49.836;6.632;2023-11-22T04:18:18;4.60;99.90
39347;DHT22;26262;49.836;6.632;2023-11-22T04:20:43;4.70;99.90
39347;DHT22;26262;49.836;6.632;2023-11-22T04:23:09;4.90;99.90
39347;DHT22;26262;49.836;6.632;2023-11-22T04:25:36;4.90;99.90
39347;DHT22;26262;49.836;6.632;2023-11-22T04:28:02;4.90;99.90
39347;DHT22;26262;49.836;6.632;2023-11-22T04:30:27;4.90;99.90
39347;DHT22;26262;49.836;6.632;2023-11-22T04:32:53;4.70;99.90
39347;DHT22;26262;49.836;6.632;2023-11-22T04:35:18;4.70;99.90
39347;DHT22;26262;49.836;6.632;2023-11-22T04:37:43;4.80;99.90
39347;DHT22;26262;49.836;6.632;2023-11-22T04:40:09;4.80;99.90
39347;DHT22;26262;49.836;6.632;2023-11-22T04:42:36;4.90;99.90
39347;DHT22;26262;49.836;6.632;2023-11-22T04:45:03;4.90;99.90
39347;DHT22;26262;49.836;6.632;2023-11-22T04:47:29;5.00;99.90
39347;DHT22;26262;49.836;6.632;2023-11-22T04:49:54;5.00;99.90
39347;DHT22;26262;49.836;6.632;2023-11-22T04:52:19;5.10;99.90
39347;DHT22;26262;49.836;6.632;2023-11-22T04:54:45;5.10;99.90
39347;DHT22;26262;49.836;6.632;2023-11-22T04:57:10;5.10;99.90
39347;DHT22;26262;49.836;6.632;2023-11-22T04:59:36;5.10;99.90
39347;DHT22;26262;49.836;6.632;2023-11-22T05:02:02;5.10;99.90
39347;DHT22;26262;49.836;6.632;2023-11-22T05:04:27;5.10;99.90
39347;DHT22;26262;49.836;6.632;2023-11-22T05:06:56;5.10;99.90
39347;DHT22;26262;49.836;6.632;2023-11-22T05:09:21;4.90;99.90
39347;DHT22;26262;49.836;6.632;2023-11-22T05:11:46;4.80;99.90
39347;DHT22;26262;49.836;6.632;2023-11-22T05:14:12;4.90;99.90
39347;DHT22;26262;49.836;6.632;2023-11-22T05:16:40;5.00;99.90
39347;DHT22;26262;49.836;6.632;2023-11-22T05:19:06;5.00;99.90
39347;DHT22;26262;49.836;6.632;2023-11-22T05:21:31;5.00;99.90
39347;DHT22;26262;49.836;6.632;2023-11-22T05:23:57;5.10;99.90
39347;DHT22;26262;49.836;6.632;2023-11-22T05:26:23;5.10;99.90
39347;DHT22;26262;49.836;6.632;2023-11-22T05:28:48;5.10;99.90
39347;DHT22;26262;49.836;6.632;2023-11-22T05:31:14;5.20;99.90
39347;DHT22;26262;49.836;6.632;2023-11-22T05:33:40;5.00;99.90
39347;DHT22;26262;49.836;6.632;2023-11-22T05:36:06;5.00;99.90
39347;DHT22;26262;49.836;6.632;2023-11-22T05:38:31;5.10;99.90
39347;DHT22;26262;49.836;6.632;2023-11-22T05:40:59;4.90;99.90
39347;DHT22;26262;49.836;6.632;2023-11-22T05:43:25;5.00;99.90
39347;DHT22;26262;49.836;6.632;2023-11-22T05:45:55;5.10;99.90
39347;DHT22;26262;49.836;6.632;2023-11-22T05:48:20;5.10;99.90
39347;DHT22;26262;49.836;6.632;2023-11-22T05:50:46;5.10;99.90
39347;DHT22;26262;49.836;6.632;2023-11-22T05:53:12;5.20;99.90
39347;DHT22;26262;49.836;6.632;2023-11-22T05:55:37;5.20;99.90
39347;DHT22;26262;49.836;6.632;2023-11-22T05:58:03;5.20;99.90
39347;DHT22;26262;49.836;6.632;2023-11-22T06:00:29;5.30;99.90
39347;DHT22;26262;49.836;6.632;2023-11-22T06:02:54;5.30;99.90
39347;DHT22;26262;49.836;6.632;2023-11-22T06:05:20;5.20;99.90
39347;DHT22;26262;49.836;6.632;2023-11-22T06:07:46;5.10;99.90
39347;DHT22;26262;49.836;6.632;2023-11-22T06:10:12;4.80;99.90
39347;DHT22;26262;49.836;6.632;2023-11-22T06:12:40;4.90;99.90
39347;DHT22;26262;49.836;6.632;2023-11-22T06:15:05;4.60;99.90
39347;DHT22;26262;49.836;6.632;2023-11-22T06:17:31;4.40;99.90
39347;DHT22;26262;49.836;6.632;2023-11-22T06:19:56;4.60;99.90
39347;DHT22;26262;49.836;6.632;2023-11-22T06:22:22;4.70;99.90
39347;DHT22;26262;49.836;6.632;2023-11-22T06:24:50;4.80;99.90
39347;DHT22;26262;49.836;6.632;2023-11-22T06:27:15;4.40;99.90
39347;DHT22;26262;49.836;6.632;2023-11-22T06:29:41;4.60;99.90
39347;DHT22;26262;49.836;6.632;2023-11-22T06:32:09;4.70;99.90
39347;DHT22;26262;49.836;6.632;2023-11-22T06:34:35;4.80;99.90
39347;DHT22;26262;49.836;6.632;2023-11-22T06:37:01;4.90;99.90
39347;DHT22;26262;49.836;6.632;2023-11-22T06:39:27;5.00;99.90
39347;DHT22;26262;49.836;6.632;2023-11-22T06:41:52;4.90;99.90
39347;DHT22;26262;49.836;6.632;2023-11-22T06:44:17;4.80;99.90
39347;DHT22;26262;49.836;6.632;2023-11-22T06:46:43;4.80;99.90
39347;DHT22;26262;49.836;6.632;2023-11-22T06:49:09;4.70;99.90
39347;DHT22;26262;49.836;6.632;2023-11-22T06:51:34;4.70;99.90
39347;DHT22;26262;49.836;6.632;2023-11-22T06:54:00;4.50;99.90
39347;DHT22;26262;49.836;6.632;2023-11-22T06:56:25;4.70;99.90
39347;DHT22;26262;49.836;6.632;2023-11-22T06:58:51;4.70;99.90
39347;DHT22;26262;49.836;6.632;2023-11-22T07:01:16;4.70;99.90
39347;DHT22;26262;49.836;6.632;2023-11-22T07:03:42;4.70;99.90
39347;DHT22;26262;49.836;6.632;2023-11-22T07:06:07;4.60;99.90
39347;DHT22;26262;49.836;6.632;2023-11-22T07:08:33;4.80;99.90
39347;DHT22;26262;49.836;6.632;2023-11-22T07:10:59;4.90;99.90
39347;DHT22;26262;49.836;6.632;2023-11-22T07:13:25;5.10;99.90
39347;DHT22;26262;49.836;6.632;2023-11-22T07:15:52;5.20;99.90
39347;DHT22;26262;49.836;6.632;2023-11-22T07:18:19;5.10;99.90
39347;DHT22;26262;49.836;6.632;2023-11-22T07:20:44;5.10;99.90
39347;DHT22;26262;49.836;6.632;2023-11-22T07:23:10;5.20;99.90
39347;DHT22;26262;49.836;6.632;2023-11-22T07:25:38;5.20;99.90
39347;DHT22;26262;49.836;6.632;2023-11-22T07:28:04;5.30;99.90
39347;DHT22;26262;49.836;6.632;2023-11-22T07:30:29;5.20;99.90
39347;DHT22;26262;49.836;6.632;2023-11-22T07:32:56;5.20;99.90
39347;DHT22;26262;49.836;6.632;2023-11-22T07:35:21;5.30;99.90
39347;DHT22;26262;49.836;6.632;2023-11-22T07:37:47;5.30;99.90
39347;DHT22;26262;49.836;6.632;2023-11-22T07:40:13;5.40;99.90
39347;DHT22;26262;49.836;6.632;2023-11-22T07:42:39;5.40;99.90
39347;DHT22;26262;49.836;6.632;2023-11-22T07:45:05;5.40;99.90
39347;DHT22;26262;49.836;6.632;2023-11-22T07:47:30;5.30;99.90
39347;DHT22;26262;49.836;6.632;2023-11-22T07:49:56;5.30;99.90
39347;DHT22;26262;49.836;6.632;2023-11-22T07:52:22;5.40;99.90
39347;DHT22;26262;49.836;6.632;2023-11-22T07:54:47;5.50;99.90
39347;DHT22;26262;49.836;6.632;2023-11-22T07:57:13;5.60;99.90
39347;DHT22;26262;49.836;6.632;2023-11-22T07:59:39;5.60;99.90
39347;DHT22;26262;49.836;6.632;2023-11-22T08:02:05;5.70;99.90
39347;DHT22;26262;49.836;6.632;2023-11-22T08:04:36;5.60;99.90
39347;DHT22;26262;49.836;6.632;2023-11-22T08:07:01;5.60;99.90
39347;DHT22;26262;49.836;6.632;2023-11-22T08:09:27;5.70;99.90
39347;DHT22;26262;49.836;6.632;2023-11-22T08:11:58;5.80;99.90
39347;DHT22;26262;49.836;6.632;2023-11-22T08:14:23;5.70;99.90
39347;DHT22;26262;49.836;6.632;2023-11-22T08:16:50;5.70;99.90
39347;DHT22;26262;49.836;6.632;2023-11-22T08:19:16;5.70;99.90
39347;DHT22;26262;49.836;6.632;2023-11-22T08:21:42;5.60;99.90
39347;DHT22;26262;49.836;6.632;2023-11-22T08:24:07;5.70;99.90
39347;DHT22;26262;49.836;6.632;2023-11-22T08:26:33;5.70;99.90
39347;DHT22;26262;49.836;6.632;2023-11-22T08:28:58;5.80;99.90
39347;DHT22;26262;49.836;6.632;2023-11-22T08:31:23;5.80;99.90
39347;DHT22;26262;49.836;6.632;2023-11-22T08:33:49;5.80;99.90
39347;DHT22;26262;49.836;6.632;2023-11-22T08:36:14;5.70;99.90
39347;DHT22;26262;49.836;6.632;2023-11-22T08:38:40;5.50;99.90
39347;DHT22;26262;49.836;6.632;2023-11-22T08:41:07;5.30;99.90
39347;DHT22;26262;49.836;6.632;2023-11-22T08:43:32;5.30;99.90
39347;DHT22;26262;49.836;6.632;2023-11-22T08:45:59;5.40;99.90
39347;DHT22;26262;49.836;6.632;2023-11-22T08:48:24;5.40;99.90
39347;DHT22;26262;49.836;6.632;2023-11-22T08:50:50;5.10;99.90
39347;DHT22;26262;49.836;6.632;2023-11-22T08:53:15;4.90;99.90
39347;DHT22;26262;49.836;6.632;2023-11-22T08:55:42;4.90;99.90
39347;DHT22;26262;49.836;6.632;2023-11-22T08:58:10;4.80;99.90
39347;DHT22;26262;49.836;6.632;2023-11-22T09:00:35;4.90;99.90
39347;DHT22;26262;49.836;6.632;2023-11-22T09:03:01;4.80;99.90
39347;DHT22;26262;49.836;6.632;2023-11-22T09:05:28;4.90;99.90
39347;DHT22;26262;49.836;6.632;2023-11-22T09:07:54;5.00;99.90
39347;DHT22;26262;49.836;6.632;2023-11-22T09:10:21;5.10;99.90
39347;DHT22;26262;49.836;6.632;2023-11-22T09:12:47;5.10;99.90
39347;DHT22;26262;49.836;6.632;2023-11-22T09:15:13;5.10;99.90
39347;DHT22;26262;49.836;6.632;2023-11-22T09:17:44;5.10;99.90
39347;DHT22;26262;49.836;6.632;2023-11-22T09:20:14;5.10;99.90
39347;DHT22;26262;49.836;6.632;2023-11-22T09:22:43;5.00;99.90
39347;DHT22;26262;49.836;6.632;2023-11-22T09:25:13;5.00;99.90
39347;DHT22;26262;49.836;6.632;2023-11-22T09:27:40;5.00;99.90
39347;DHT22;26262;49.836;6.632;2023-11-22T09:30:05;5.10;99.90
39347;DHT22;26262;49.836;6.632;2023-11-22T09:32:31;5.10;99.90
39347;DHT22;26262;49.836;6.632;2023-11-22T09:34:57;4.90;99.90
39347;DHT22;26262;49.836;6.632;2023-11-22T09:37:23;5.00;99.90
39347;DHT22;26262;49.836;6.632;2023-11-22T09:39:49;5.00;99.90
39347;DHT22;26262;49.836;6.632;2023-11-22T09:42:15;4.90;99.90
39347;DHT22;26262;49.836;6.632;2023-11-22T09:44:40;4.80;99.90
39347;DHT22;26262;49.836;6.632;2023-11-22T09:47:06;4.80;99.90
39347;DHT22;26262;49.836;6.632;2023-11-22T09:49:32;4.70;99.90
39347;DHT22;26262;49.836;6.632;2023-11-22T09:51:58;4.70;99.90
39347;DHT22;26262;49.836;6.632;2023-11-22T09:54:28;4.70;99.90
39347;DHT22;26262;49.836;6.632;2023-11-22T09:56:56;4.60;99.90
39347;DHT22;26262;49.836;6.632;2023-11-22T09:59:21;4.70;99.90
39347;DHT22;26262;49.836;6.632;2023-11-22T10:01:48;4.70;99.90
39347;DHT22;26262;49.836;6.632;2023-11-22T10:04:14;4.60;99.90
39347;DHT22;26262;49.836;6.632;2023-11-22T10:06:39;4.60;99.90
39347;DHT22;26262;49.836;6.632;2023-11-22T10:09:06;4.70;99.90
39347;DHT22;26262;49.836;6.632;2023-11-22T10:11:33;4.70;99.90
39347;DHT22;26262;49.836;6.632;2023-11-22T10:13:58;4.80;99.90
39347;DHT22;26262;49.836;6.632;2023-11-22T10:16:24;4.90;99.90
39347;DHT22;26262;49.836;6.632;2023-11-22T10:18:49;4.90;99.90
39347;DHT22;26262;49.836;6.632;2023-11-22T10:21:22;4.80;99.90
39347;DHT22;26262;49.836;6.632;2023-11-22T10:23:49;4.50;99.90
39347;DHT22;26262;49.836;6.632;2023-11-22T10:26:17;4.60;99.90
39347;DHT22;26262;49.836;6.632;2023-11-22T10:28:42;4.70;99.90
39347;DHT22;26262;49.836;6.632;2023-11-22T10:31:11;4.60;99.90
39347;DHT22;26262;49.836;6.632;2023-11-22T10:33:40;4.80;99.90
39347;DHT22;26262;49.836;6.632;2023-11-22T10:36:07;4.80;99.90
39347;DHT22;26262;49.836;6.632;2023-11-22T10:38:33;4.70;99.90
39347;DHT22;26262;49.836;6.632;2023-11-22T10:40:58;4.80;99.90
39347;DHT22;26262;49.836;6.632;2023-11-22T10:43:27;4.90;99.90
39347;DHT22;26262;49.836;6.632;2023-11-22T10:45:56;5.00;99.90
39347;DHT22;26262;49.836;6.632;2023-11-22T10:48:22;5.10;99.90
39347;DHT22;26262;49.836;6.632;2023-11-22T10:50:47;5.20;99.90
39347;DHT22;26262;49.836;6.632;2023-11-22T10:53:15;5.20;99.90
39347;DHT22;26262;49.836;6.632;2023-11-22T10:55:47;5.10;99.90
39347;DHT22;26262;49.836;6.632;2023-11-22T10:58:16;5.20;99.90
39347;DHT22;26262;49.836;6.632;2023-11-22T11:00:43;5.20;99.90
39347;DHT22;26262;49.836;6.632;2023-11-22T11:03:14;5.00;99.90
39347;DHT22;26262;49.836;6.632;2023-11-22T11:05:41;4.90;99.90
39347;DHT22;26262;49.836;6.632;2023-11-22T11:08:10;5.00;99.90
39347;DHT22;26262;49.836;6.632;2023-11-22T11:10:43;4.90;99.90
39347;DHT22;26262;49.836;6.632;2023-11-22T11:13:09;5.10;99.90
39347;DHT22;26262;49.836;6.632;2023-11-22T11:15:35;5.10;99.90
39347;DHT22;26262;49.836;6.632;2023-11-22T11:18:01;5.20;99.90
39347;DHT22;26262;49.836;6.632;2023-11-22T11:20:49;5.30;99.90
39347;DHT22;26262;49.836;6.632;2023-11-22T11:23:21;5.30;99.90
39347;DHT22;26262;49.836;6.632;2023-11-22T11:25:51;5.50;99.90
39347;DHT22;26262;49.836;6.632;2023-11-22T11:28:17;5.50;99.90
39347;DHT22;26262;49.836;6.632;2023-11-22T11:30:43;5.50;99.90
39347;DHT22;26262;49.836;6.632;2023-11-22T11:33:11;5.60;99.90
39347;DHT22;26262;49.836;6.632;2023-11-22T11:35:38;5.50;99.90
39347;DHT22;26262;49.836;6.632;2023-11-22T11:38:04;5.60;99.90
39347;DHT22;26262;49.836;6.632;2023-11-22T11:40:33;5.70;99.90
39347;DHT22;26262;49.836;6.632;2023-11-22T11:42:59;5.80;99.90
39347;DHT22;26262;49.836;6.632;2023-11-22T11:45:24;6.20;99.90
39347;DHT22;26262;49.836;6.632;2023-11-22T11:47:50;6.40;99.90
39347;DHT22;26262;49.836;6.632;2023-11-22T11:50:16;6.50;99.90
39347;DHT22;26262;49.836;6.632;2023-11-22T11:52:41;7.00;99.90
39347;DHT22;26262;49.836;6.632;2023-11-22T11:55:07;7.10;99.90
39347;DHT22;26262;49.836;6.632;2023-11-22T11:57:32;7.60;99.90
39347;DHT22;26262;49.836;6.632;2023-11-22T11:59:58;7.80;99.90
39347;DHT22;26262;49.836;6.632;2023-11-22T12:02:24;8.40;99.90
39347;DHT22;26262;49.836;6.632;2023-11-22T12:04:50;8.90;99.90
39347;DHT22;26262;49.836;6.632;2023-11-22T12:07:15;9.20;99.90
39347;DHT22;26262;49.836;6.632;2023-11-22T12:09:41;9.60;99.90
39347;DHT22;26262;49.836;6.632;2023-11-22T12:12:06;10.10;99.90
39347;DHT22;26262;49.836;6.632;2023-11-22T12:14:32;10.00;99.30
39347;DHT22;26262;49.836;6.632;2023-11-22T12:16:58;9.60;99.90
39347;DHT22;26262;49.836;6.632;2023-11-22T12:19:24;9.50;99.90
39347;DHT22;26262;49.836;6.632;2023-11-22T12:21:52;9.60;99.90
39347;DHT22;26262;49.836;6.632;2023-11-22T12:24:17;9.70;98.80
39347;DHT22;26262;49.836;6.632;2023-11-22T12:26:46;9.50;99.70
39347;DHT22;26262;49.836;6.632;2023-11-22T12:29:15;9.80;99.00
39347;DHT22;26262;49.836;6.632;2023-11-22T12:31:47;9.70;99.90
39347;DHT22;26262;49.836;6.632;2023-11-22T12:34:16;9.80;98.70
39347;DHT22;26262;49.836;6.632;2023-11-22T12:36:42;10.00;99.10
39347;DHT22;26262;49.836;6.632;2023-11-22T12:39:10;9.60;97.60
39347;DHT22;26262;49.836;6.632;2023-11-22T12:41:42;9.90;99.30
39347;DHT22;26262;49.836;6.632;2023-11-22T12:44:08;10.30;98.70
39347;DHT22;26262;49.836;6.632;2023-11-22T12:46:46;10.60;98.30
39347;DHT22;26262;49.836;6.632;2023-11-22T12:49:15;10.50;97.90
39347;DHT22;26262;49.836;6.632;2023-11-22T12:51:51;10.90;98.20
39347;DHT22;26262;49.836;6.632;2023-11-22T12:54:17;10.30;97.20
39347;DHT22;26262;49.836;6.632;2023-11-22T12:56:45;10.80;98.60
39347;DHT22;26262;49.836;6.632;2023-11-22T12:59:10;11.30;98.30
39347;DHT22;26262;49.836;6.632;2023-11-22T13:01:36;11.60;96.70
39347;DHT22;26262;49.836;6.632;2023-11-22T13:04:01;11.90;97.40
39347;DHT22;26262;49.836;6.632;2023-11-22T13:06:27;11.60;97.30
39347;DHT22;26262;49.836;6.632;2023-11-22T13:08:52;11.50;96.10
39347;DHT22;26262;49.836;6.632;2023-11-22T13:11:18;11.60;95.40
39347;DHT22;26262;49.836;6.632;2023-11-22T13:13:44;10.90;95.30
39347;DHT22;26262;49.836;6.632;2023-11-22T13:16:12;10.90;97.20
39347;DHT22;26262;49.836;6.632;2023-11-22T13:18:37;9.80;94.60
39347;DHT22;26262;49.836;6.632;2023-11-22T13:21:03;10.20;96.30
39347;DHT22;26262;49.836;6.632;2023-11-22T13:23:29;10.40;97.90
39347;DHT22;26262;49.836;6.632;2023-11-22T13:25:54;10.00;95.70
39347;DHT22;26262;49.836;6.632;2023-11-22T13:28:19;9.90;96.80
39347;DHT22;26262;49.836;6.632;2023-11-22T13:30:45;10.10;96.00
39347;DHT22;26262;49.836;6.632;2023-11-22T13:33:10;9.10;96.10
39347;DHT22;26262;49.836;6.632;2023-11-22T13:35:36;8.90;95.90
39347;DHT22;26262;49.836;6.632;2023-11-22T13:38:03;8.20;99.10
39347;DHT22;26262;49.836;6.632;2023-11-22T13:40:32;8.10;98.30
39347;DHT22;26262;49.836;6.632;2023-11-22T13:42:58;7.50;96.80
39347;DHT22;26262;49.836;6.632;2023-11-22T13:45:24;7.50;99.90
39347;DHT22;26262;49.836;6.632;2023-11-22T13:47:50;7.40;98.80
39347;DHT22;26262;49.836;6.632;2023-11-22T13:50:16;7.20;99.90
39347;DHT22;26262;49.836;6.632;2023-11-22T13:52:50;7.20;99.90
39347;DHT22;26262;49.836;6.632;2023-11-22T13:55:16;7.00;99.90
39347;DHT22;26262;49.836;6.632;2023-11-22T13:57:44;7.30;99.90
39347;DHT22;26262;49.836;6.632;2023-11-22T14:00:10;7.30;99.90
39347;DHT22;26262;49.836;6.632;2023-11-22T14:02:47;7.00;99.90
39347;DHT22;26262;49.836;6.632;2023-11-22T14:05:13;6.80;99.90
39347;DHT22;26262;49.836;6.632;2023-11-22T14:07:38;6.90;99.90
39347;DHT22;26262;49.836;6.632;2023-11-22T14:10:04;6.80;99.90
39347;DHT22;26262;49.836;6.632;2023-11-22T14:12:30;6.30;99.90
39347;DHT22;26262;49.836;6.632;2023-11-22T14:14:57;6.60;99.90
39347;DHT22;26262;49.836;6.632;2023-11-22T14:17:23;6.00;99.90
39347;DHT22;26262;49.836;6.632;2023-11-22T14:19:49;6.10;99.90
39347;DHT22;26262;49.836;6.632;2023-11-22T14:22:15;6.10;99.90
39347;DHT22;26262;49.836;6.632;2023-11-22T14:24:40;6.10;99.90
39347;DHT22;26262;49.836;6.632;2023-11-22T14:27:06;6.10;99.90
39347;DHT22;26262;49.836;6.632;2023-11-22T14:29:31;5.90;99.90
39347;DHT22;26262;49.836;6.632;2023-11-22T14:31:58;6.10;99.90
39347;DHT22;26262;49.836;6.632;2023-11-22T14:34:24;6.20;99.90
39347;DHT22;26262;49.836;6.632;2023-11-22T14:36:49;6.30;99.90
39347;DHT22;26262;49.836;6.632;2023-11-22T14:39:15;6.40;99.90
39347;DHT22;26262;49.836;6.632;2023-11-22T14:41:41;6.30;99.90
39347;DHT22;26262;49.836;6.632;2023-11-22T14:44:06;6.40;99.90
39347;DHT22;26262;49.836;6.632;2023-11-22T14:46:32;6.20;99.90
39347;DHT22;26262;49.836;6.632;2023-11-22T14:48:57;5.80;99.90
39347;DHT22;26262;49.836;6.632;2023-11-22T14:51:23;5.90;99.90
39347;DHT22;26262;49.836;6.632;2023-11-22T14:53:49;6.00;99.90
39347;DHT22;26262;49.836;6.632;2023-11-22T14:56:15;6.10;99.90
39347;DHT22;26262;49.836;6.632;2023-11-22T14:58:40;5.30;99.90
39347;DHT22;26262;49.836;6.632;2023-11-22T15:01:06;5.30;99.90
39347;DHT22;26262;49.836;6.632;2023-11-22T15:03:34;5.40;99.90
39347;DHT22;26262;49.836;6.632;2023-11-22T15:06:01;5.10;99.90
39347;DHT22;26262;49.836;6.632;2023-11-22T15:08:26;5.30;99.90
39347;DHT22;26262;49.836;6.632;2023-11-22T15:10:56;5.30;99.90
39347;DHT22;26262;49.836;6.632;2023-11-22T15:13:21;5.00;99.90
39347;DHT22;26262;49.836;6.632;2023-11-22T15:15:47;5.30;99.90
39347;DHT22;26262;49.836;6.632;2023-11-22T15:18:12;5.00;99.90
39347;DHT22;26262;49.836;6.632;2023-11-22T15:20:38;5.20;99.90
39347;DHT22;26262;49.836;6.632;2023-11-22T15:23:04;5.20;99.90
39347;DHT22;26262;49.836;6.632;2023-11-22T15:25:30;5.20;99.90
39347;DHT22;26262;49.836;6.632;2023-11-22T15:27:56;4.90;99.90
39347;DHT22;26262;49.836;6.632;2023-11-22T15:30:24;5.10;99.90
39347;DHT22;26262;49.836;6.632;2023-11-22T15:32:50;5.30;99.90
39347;DHT22;26262;49.836;6.632;2023-11-22T15:35:15;5.10;99.90
39347;DHT22;26262;49.836;6.632;2023-11-22T15:37:41;5.30;99.90